Time;durP1;ratioP1;P1;durP2;ratioP2;P2;SDS_P1;SDS_P2;PMS_P1;PMS_P2;Temp;Humidity;BMP_temperature;BMP_pressure;BME280_temperature;BME280_humidity;BME280_pressure;Samples;Min_cycle;Max_cycle;Signal;HPM_P1;HPM_P2
2021/10/20 00:11:51;;;;;;;21.95;13.70;;;;;;;12.95;100.00;100241.33;712395;1206;115068;-81
2021/10/20 00:26:53;;;;;;;22.10;14.07;;;;;;;12.81;100.00;100198.77;712645;1180;117587;-80
2021/10/20 00:41:55;;;;;;;20.33;13.00;;;;;;;12.70;100.00;100163.95;712542;1207;114627;-79
2021/10/20 00:56:58;;;;;;;28.10;18.10;;;;;;;12.49;100.00;100188.77;712389;1209;114396;-79
2021/10/20 01:12:01;;;;;;;26.93;16.60;;;;;;;12.32;100.00;100164.09;712284;1203;115466;-80
2021/10/20 01:27:04;;;;;;;28.80;16.38;;;;;;;12.19;100.00;100142.60;712456;1196;115304;-79
2021/10/20 01:42:06;;;;;;;24.80;15.35;;;;;;;12.18;100.00;100112.86;725275;1205;114971;-79
2021/10/20 01:57:08;;;;;;;24.10;15.70;;;;;;;12.22;100.00;100084.44;712302;1203;114487;-80
2021/10/20 02:12:10;;;;;;;29.73;17.80;;;;;;;12.18;100.00;100038.39;712473;1206;115349;-78
2021/10/20 02:27:13;;;;;;;29.13;17.63;;;;;;;12.13;100.00;100046.75;712415;1203;114866;-79
2021/10/20 02:42:15;;;;;;;32.93;19.10;;;;;;;12.14;100.00;100046.59;712339;1206;115781;-79
2021/10/20 02:57:17;;;;;;;30.70;18.93;;;;;;;12.07;100.00;100016.60;712281;1205;115308;-80
2021/10/20 03:12:19;;;;;;;32.27;19.97;;;;;;;12.05;100.00;100010.69;712421;1180;114471;-80
2021/10/20 03:27:21;;;;;;;34.60;22.23;;;;;;;12.13;100.00;99975.75;712303;1206;115143;-79
2021/10/20 03:42:24;;;;;;;31.88;19.83;;;;;;;12.21;100.00;99967.10;712659;1179;114432;-79
2021/10/20 03:57:26;;;;;;;29.13;17.88;;;;;;;12.19;100.00;99961.16;712461;1205;114840;-79
2021/10/20 04:12:28;;;;;;;33.98;18.68;;;;;;;12.22;100.00;99955.58;713911;1203;114377;-78
2021/10/20 04:27:30;;;;;;;34.70;20.90;;;;;;;12.32;100.00;99936.08;712440;1203;115775;-78
2021/10/20 04:42:33;;;;;;;36.80;22.63;;;;;;;12.40;100.00;99916.90;712364;1208;114904;-78
2021/10/20 04:57:36;;;;;;;40.08;22.40;;;;;;;12.59;100.00;99896.59;713654;1203;115126;-78
2021/10/20 05:12:38;;;;;;;41.87;25.10;;;;;;;12.73;100.00;99901.27;712850;1203;116006;-79
2021/10/20 05:27:42;;;;;;;42.98;24.35;;;;;;;12.79;100.00;99903.27;712430;1192;114379;-81
2021/10/20 05:42:45;;;;;;;34.85;22.40;;;;;;;12.93;100.00;99895.74;712314;1203;114398;-79
2021/10/20 05:57:47;;;;;;;35.30;21.40;;;;;;;13.08;100.00;99875.72;712470;1179;114266;-79
2021/10/20 06:12:49;;;;;;;39.58;22.40;;;;;;;13.30;100.00;99852.36;712535;1203;115993;-77
2021/10/20 06:27:51;;;;;;;40.78;24.40;;;;;;;13.44;100.00;99829.85;712801;1208;114795;-78
2021/10/20 06:42:53;;;;;;;35.77;23.17;;;;;;;13.57;100.00;99814.36;713066;1208;115002;-79
2021/10/20 06:57:56;;;;;;;33.80;21.40;;;;;;;13.71;100.00;99839.23;712525;1180;114206;-78
2021/10/20 07:12:58;;;;;;;36.35;22.80;;;;;;;13.87;100.00;99819.93;712773;1203;115398;-76
2021/10/20 07:28:00;;;;;;;42.47;24.03;;;;;;;14.09;100.00;99821.00;712787;1207;115693;-73
2021/10/20 07:43:03;;;;;;;36.55;22.83;;;;;;;14.34;100.00;99791.91;712591;1203;115872;-74
2021/10/20 07:58:05;;;;;;;43.60;24.78;;;;;;;14.54;100.00;99783.56;712961;1203;115031;-73
2021/10/20 08:13:08;;;;;;;37.78;23.98;;;;;;;14.73;100.00;99777.88;712812;1205;115007;-83
2021/10/20 08:28:10;;;;;;;37.15;25.10;;;;;;;14.92;100.00;99763.38;712590;1203;114937;-78
2021/10/20 08:43:18;;;;;;;42.98;24.90;;;;;;;15.08;100.00;99759.79;712641;1203;114743;-73
2021/10/20 08:58:22;;;;;;;31.97;22.83;;;;;;;15.24;100.00;99724.52;713044;1203;114434;-88
2021/10/20 09:13:26;;;;;;;33.87;22.97;;;;;;;15.46;100.00;99704.29;713075;1203;115509;-87
2021/10/20 09:28:34;;;;;;;30.08;20.95;;;;;;;15.78;100.00;99699.66;713157;1203;115924;-87
2021/10/20 09:43:57;;;;;;;24.67;17.93;;;;;;;16.37;100.00;99676.75;713049;1203;114364;-88
2021/10/20 09:59:00;;;;;;;22.20;14.67;;;;;;;17.09;100.00;99656.44;713212;1203;115414;-87
2021/10/20 10:14:11;;;;;;;22.55;13.85;;;;;;;17.69;100.00;99632.08;713201;1203;114953;-88
2021/10/20 10:29:14;;;;;;;15.60;11.40;;;;;;;17.93;100.00;99595.46;712592;1203;114530;-74
2021/10/20 10:44:19;;;;;;;18.83;12.07;;;;;;;17.97;100.00;99578.13;712243;1209;115887;-78
2021/10/20 10:59:21;;;;;;;15.37;10.03;;;;;;;18.48;100.00;99541.44;712918;1180;114231;-77
2021/10/20 11:14:26;;;;;;;13.23;8.83;;;;;;;18.70;100.00;99508.30;713284;1181;114581;-79
2021/10/20 11:29:29;;;;;;;13.77;8.53;;;;;;;18.96;100.00;99509.28;712442;1208;115633;-86
2021/10/20 11:44:34;;;;;;;10.70;7.50;;;;;;;19.09;100.00;99469.36;713011;1203;115294;-88
2021/10/20 11:59:38;;;;;;;12.23;7.07;;;;;;;19.39;100.00;99462.70;714305;1206;114416;-87
2021/10/20 12:14:46;;;;;;;;;;;;;;;19.59;100.00;99446.61;712703;1210;115062;-88
2021/10/20 12:29:52;;;;;;;11.37;7.23;;;;;;;19.24;100.00;99429.23;712826;1203;100952;-89
2021/10/20 12:44:59;;;;;;;10.75;7.03;;;;;;;19.55;98.96;99386.91;713416;1181;113692;-87
2021/10/20 13:00:26;;;;;;;16.97;11.67;;;;;;;20.05;97.33;99378.93;712827;1181;114682;-78
2021/10/20 13:15:29;;;;;;;10.60;6.83;;;;;;;19.87;94.70;99354.95;712362;1209;114166;-80
2021/10/20 13:30:33;;;;;;;11.60;7.00;;;;;;;19.79;91.80;99324.91;712429;1203;114204;-79
2021/10/20 13:45:38;;;;;;;10.00;6.50;;;;;;;20.05;92.79;99296.41;712234;1205;114501;-81
2021/10/20 14:00:41;;;;;;;9.00;6.40;;;;;;;20.67;85.38;99268.83;713571;1179;115191;-78
2021/10/20 14:15:44;;;;;;;10.20;6.40;;;;;;;19.41;87.91;99283.30;712238;1209;113801;-77
2021/10/20 14:30:47;;;;;;;10.20;6.70;;;;;;;19.29;88.46;99288.50;712236;1203;114068;-80
2021/10/20 14:45:51;;;;;;;12.33;8.65;;;;;;;19.14;90.89;99324.41;712274;1203;114780;-81
2021/10/20 15:00:55;;;;;;;11.90;6.65;;;;;;;18.46;95.63;99279.58;712448;1203;114590;-79
2021/10/20 15:15:58;;;;;;;13.00;8.55;;;;;;;17.67;100.00;99233.67;712410;1203;115080;-78
2021/10/20 15:31:01;;;;;;;35.70;18.93;;;;;;;17.34;100.00;99223.09;712227;1203;115407;-78
2021/10/20 15:46:04;;;;;;;26.73;12.17;;;;;;;17.35;100.00;99198.23;712550;1206;114423;-79
2021/10/20 16:01:08;;;;;;;18.63;10.13;;;;;;;17.37;100.00;99170.50;712782;1205;114529;-79
2021/10/20 16:16:11;;;;;;;30.17;17.23;;;;;;;17.57;100.00;99196.16;712543;1203;114515;-78
2021/10/20 16:31:14;;;;;;;13.93;7.75;;;;;;;17.82;100.00;99161.01;712341;1204;114295;-77
2021/10/20 16:46:17;;;;;;;9.63;7.90;;;;;;;18.20;100.00;99155.75;712345;1205;114171;-80
2021/10/20 17:01:20;;;;;;;9.10;5.75;;;;;;;18.02;100.00;99188.28;712367;1208;115129;-82
2021/10/20 17:16:23;;;;;;;11.45;6.20;;;;;;;18.26;95.82;99140.80;712695;1178;114169;-82
2021/10/20 17:31:25;;;;;;;16.47;7.17;;;;;;;18.18;93.88;99087.98;712514;1203;115454;-82
2021/10/20 17:46:27;;;;;;;11.95;6.25;;;;;;;18.32;91.39;99115.23;712811;1203;114865;-82
2021/10/20 18:01:29;;;;;;;13.60;6.63;;;;;;;18.36;89.45;99114.61;715765;1190;114044;-93
2021/10/20 18:16:33;;;;;;;10.73;6.08;;;;;;;18.19;89.80;99118.81;715360;1180;113994;-81
2021/10/20 18:31:35;;;;;;;7.20;5.03;;;;;;;18.06;89.79;99093.96;712364;1208;113982;-81
2021/10/20 18:46:38;;;;;;;9.20;4.40;;;;;;;18.15;87.31;99062.69;712345;1209;113700;-81
2021/10/20 19:01:41;;;;;;;8.75;4.75;;;;;;;18.18;87.19;99069.41;712477;1180;113921;-81
2021/10/20 19:16:44;;;;;;;9.35;4.85;;;;;;;18.20;85.70;99069.98;712449;1203;114623;-79
2021/10/20 19:31:49;;;;;;;7.40;4.47;;;;;;;18.48;85.60;99036.94;712387;1203;114095;-81
2021/10/20 19:46:52;;;;;;;9.95;5.23;;;;;;;18.43;84.14;99018.98;712591;1180;113826;-80
2021/10/20 20:01:56;;;;;;;8.57;5.27;;;;;;;18.34;85.44;99005.16;713304;1209;114270;-80
2021/10/20 20:16:58;;;;;;;10.40;5.85;;;;;;;18.34;88.22;99009.67;722516;1204;113893;-92
2021/10/20 20:32:03;;;;;;;9.90;6.80;;;;;;;18.28;90.20;99003.39;717875;1180;114134;-92
2021/10/20 20:47:06;;;;;;;15.55;7.25;;;;;;;18.36;90.13;98981.88;715771;1181;114285;-90
2021/10/20 21:02:12;;;;;;;10.88;6.40;;;;;;;18.43;90.12;98971.20;715939;1203;114865;-92
2021/10/20 21:17:15;;;;;;;11.33;6.25;;;;;;;18.40;91.01;98972.45;716450;1203;114521;-91
2021/10/20 21:32:17;;;;;;;9.30;5.60;;;;;;;18.50;89.56;98941.92;718005;1203;114921;-91
2021/10/20 21:47:19;;;;;;;11.90;5.83;;;;;;;18.35;90.04;98935.13;716879;1182;112964;-91
2021/10/20 22:02:23;;;;;;;11.55;7.10;;;;;;;18.04;91.67;98920.92;716740;1180;114341;-77
2021/10/20 22:17:25;;;;;;;11.67;7.10;;;;;;;17.80;93.40;98936.58;723698;1203;114460;-78
2021/10/20 22:32:27;;;;;;;12.50;6.93;;;;;;;17.65;94.38;98927.31;713636;1205;114583;-79
2021/10/20 22:47:30;;;;;;;9.50;6.13;;;;;;;17.59;94.24;98919.18;713817;1180;114208;-78
2021/10/20 23:02:32;;;;;;;11.97;6.20;;;;;;;17.42;95.62;98908.27;712864;1181;114278;-78
2021/10/20 23:17:34;;;;;;;11.70;7.70;;;;;;;17.12;97.40;98882.34;712480;1181;113970;-80
2021/10/20 23:32:37;;;;;;;13.45;7.63;;;;;;;16.91;98.60;98885.31;712461;1207;115240;-80
2021/10/20 23:47:39;;;;;;;12.73;7.90;;;;;;;16.79;99.97;98870.04;712233;1206;116014;-80
